sensor_id;sensor_type;location;lat;lon;timestamp;P1;durP1;ratioP1;P2;durP2;ratioP2
23346;SDS011;36852;45.466;11.066;2022-11-23T00:01:17;5.20;;;3.52;;
23346;SDS011;36852;45.466;11.066;2022-11-23T00:03:47;9.98;;;6.83;;
23346;SDS011;36852;45.466;11.066;2022-11-23T00:06:17;11.53;;;7.70;;
23346;SDS011;36852;45.466;11.066;2022-11-23T00:08:47;9.08;;;5.35;;
23346;SDS011;36852;45.466;11.066;2022-11-23T00:11:16;6.17;;;4.03;;
23346;SDS011;36852;45.466;11.066;2022-11-23T00:13:45;3.15;;;1.77;;
23346;SDS011;36852;45.466;11.066;2022-11-23T00:16:15;4.25;;;2.08;;
23346;SDS011;36852;45.466;11.066;2022-11-23T00:18:45;4.37;;;2.52;;
23346;SDS011;36852;45.466;11.066;2022-11-23T00:21:14;3.80;;;2.35;;
23346;SDS011;36852;45.466;11.066;2022-11-23T00:23:44;4.95;;;2.15;;
23346;SDS011;36852;45.466;11.066;2022-11-23T00:26:12;4.62;;;2.17;;
23346;SDS011;36852;45.466;11.066;2022-11-23T00:28:41;4.60;;;2.08;;
23346;SDS011;36852;45.466;11.066;2022-11-23T00:31:11;3.33;;;2.30;;
23346;SDS011;36852;45.466;11.066;2022-11-23T00:33:41;3.62;;;2.30;;
23346;SDS011;36852;45.466;11.066;2022-11-23T00:36:13;2.62;;;2.10;;
23346;SDS011;36852;45.466;11.066;2022-11-23T00:38:40;4.35;;;3.45;;
23346;SDS011;36852;45.466;11.066;2022-11-23T00:41:11;5.42;;;3.30;;
23346;SDS011;36852;45.466;11.066;2022-11-23T00:43:41;7.58;;;4.10;;
23346;SDS011;36852;45.466;11.066;2022-11-23T00:46:11;5.83;;;3.92;;
23346;SDS011;36852;45.466;11.066;2022-11-23T00:48:46;5.97;;;3.87;;
23346;SDS011;36852;45.466;11.066;2022-11-23T00:51:13;5.95;;;3.77;;
23346;SDS011;36852;45.466;11.066;2022-11-23T00:53:43;7.37;;;4.15;;
23346;SDS011;36852;45.466;11.066;2022-11-23T00:56:11;7.25;;;4.58;;
23346;SDS011;36852;45.466;11.066;2022-11-23T00:58:40;6.47;;;4.42;;
23346;SDS011;36852;45.466;11.066;2022-11-23T01:01:12;5.05;;;4.28;;
23346;SDS011;36852;45.466;11.066;2022-11-23T01:03:46;4.33;;;3.92;;
23346;SDS011;36852;45.466;11.066;2022-11-23T01:06:18;4.17;;;3.77;;
23346;SDS011;36852;45.466;11.066;2022-11-23T01:11:21;5.78;;;3.92;;
23346;SDS011;36852;45.466;11.066;2022-11-23T01:13:52;8.20;;;4.62;;
23346;SDS011;36852;45.466;11.066;2022-11-23T01:16:22;7.37;;;4.50;;
23346;SDS011;36852;45.466;11.066;2022-11-23T01:18:56;5.25;;;3.85;;
23346;SDS011;36852;45.466;11.066;2022-11-23T01:21:22;5.95;;;3.90;;
23346;SDS011;36852;45.466;11.066;2022-11-23T01:23:51;5.33;;;3.75;;
23346;SDS011;36852;45.466;11.066;2022-11-23T01:26:20;5.37;;;4.03;;
23346;SDS011;36852;45.466;11.066;2022-11-23T01:28:49;4.42;;;3.67;;
23346;SDS011;36852;45.466;11.066;2022-11-23T01:31:20;5.75;;;3.95;;
23346;SDS011;36852;45.466;11.066;2022-11-23T01:33:56;5.37;;;3.98;;
23346;SDS011;36852;45.466;11.066;2022-11-23T01:36:27;6.50;;;4.17;;
23346;SDS011;36852;45.466;11.066;2022-11-23T01:38:57;5.83;;;4.35;;
23346;SDS011;36852;45.466;11.066;2022-11-23T01:41:27;4.70;;;3.80;;
23346;SDS011;36852;45.466;11.066;2022-11-23T01:43:58;5.80;;;4.35;;
23346;SDS011;36852;45.466;11.066;2022-11-23T01:46:26;7.25;;;4.62;;
23346;SDS011;36852;45.466;11.066;2022-11-23T01:49:00;5.05;;;3.62;;
23346;SDS011;36852;45.466;11.066;2022-11-23T01:51:36;4.85;;;3.55;;
23346;SDS011;36852;45.466;11.066;2022-11-23T01:54:07;3.87;;;3.17;;
23346;SDS011;36852;45.466;11.066;2022-11-23T01:56:45;4.30;;;2.85;;
23346;SDS011;36852;45.466;11.066;2022-11-23T01:59:12;5.00;;;3.60;;
23346;SDS011;36852;45.466;11.066;2022-11-23T02:01:42;5.28;;;4.10;;
23346;SDS011;36852;45.466;11.066;2022-11-23T02:07:03;10.68;;;5.33;;
23346;SDS011;36852;45.466;11.066;2022-11-23T02:09:32;6.72;;;4.72;;
23346;SDS011;36852;45.466;11.066;2022-11-23T02:12:01;6.92;;;5.10;;
23346;SDS011;36852;45.466;11.066;2022-11-23T02:14:30;6.00;;;4.00;;
23346;SDS011;36852;45.466;11.066;2022-11-23T02:16:58;5.33;;;3.72;;
23346;SDS011;36852;45.466;11.066;2022-11-23T02:22:36;3.50;;;2.47;;
23346;SDS011;36852;45.466;11.066;2022-11-23T02:28:15;4.78;;;4.03;;
23346;SDS011;36852;45.466;11.066;2022-11-23T02:30:47;7.83;;;4.30;;
23346;SDS011;36852;45.466;11.066;2022-11-23T02:33:19;5.22;;;4.20;;
23346;SDS011;36852;45.466;11.066;2022-11-23T02:35:52;6.45;;;4.40;;
23346;SDS011;36852;45.466;11.066;2022-11-23T02:38:20;5.22;;;4.17;;
23346;SDS011;36852;45.466;11.066;2022-11-23T02:40:50;9.80;;;4.30;;
23346;SDS011;36852;45.466;11.066;2022-11-23T02:46:08;6.53;;;4.28;;
23346;SDS011;36852;45.466;11.066;2022-11-23T02:48:36;6.25;;;4.72;;
23346;SDS011;36852;45.466;11.066;2022-11-23T02:51:05;5.45;;;3.98;;
23346;SDS011;36852;45.466;11.066;2022-11-23T02:53:35;6.92;;;4.35;;
23346;SDS011;36852;45.466;11.066;2022-11-23T02:56:03;5.28;;;3.80;;
23346;SDS011;36852;45.466;11.066;2022-11-23T02:58:32;7.70;;;4.00;;
23346;SDS011;36852;45.466;11.066;2022-11-23T03:01:00;4.97;;;3.72;;
23346;SDS011;36852;45.466;11.066;2022-11-23T03:03:28;7.75;;;4.12;;
23346;SDS011;36852;45.466;11.066;2022-11-23T03:05:56;6.97;;;4.15;;
23346;SDS011;36852;45.466;11.066;2022-11-23T03:08:26;5.95;;;4.37;;
23346;SDS011;36852;45.466;11.066;2022-11-23T03:10:53;6.15;;;4.80;;
23346;SDS011;36852;45.466;11.066;2022-11-23T03:13:23;6.37;;;4.92;;
23346;SDS011;36852;45.466;11.066;2022-11-23T03:15:55;7.70;;;4.80;;
23346;SDS011;36852;45.466;11.066;2022-11-23T03:18:25;6.17;;;4.95;;
23346;SDS011;36852;45.466;11.066;2022-11-23T03:20:53;9.58;;;5.25;;
23346;SDS011;36852;45.466;11.066;2022-11-23T03:23:21;7.45;;;5.05;;
23346;SDS011;36852;45.466;11.066;2022-11-23T03:25:58;9.55;;;4.83;;
23346;SDS011;36852;45.466;11.066;2022-11-23T03:31:18;7.60;;;4.72;;
23346;SDS011;36852;45.466;11.066;2022-11-23T03:33:47;12.78;;;4.62;;
23346;SDS011;36852;45.466;11.066;2022-11-23T03:36:15;6.17;;;4.97;;
23346;SDS011;36852;45.466;11.066;2022-11-23T03:38:44;7.17;;;5.00;;
23346;SDS011;36852;45.466;11.066;2022-11-23T03:41:14;8.25;;;5.00;;
23346;SDS011;36852;45.466;11.066;2022-11-23T03:43:47;4.78;;;3.80;;
23346;SDS011;36852;45.466;11.066;2022-11-23T03:46:15;4.08;;;3.33;;
23346;SDS011;36852;45.466;11.066;2022-11-23T03:48:42;6.12;;;3.80;;
23346;SDS011;36852;45.466;11.066;2022-11-23T03:53:58;4.83;;;3.70;;
23346;SDS011;36852;45.466;11.066;2022-11-23T03:56:27;4.60;;;3.55;;
23346;SDS011;36852;45.466;11.066;2022-11-23T03:58:55;4.60;;;3.17;;
23346;SDS011;36852;45.466;11.066;2022-11-23T04:01:23;5.22;;;3.47;;
23346;SDS011;36852;45.466;11.066;2022-11-23T04:03:52;6.72;;;5.12;;
23346;SDS011;36852;45.466;11.066;2022-11-23T04:06:22;10.00;;;5.30;;
23346;SDS011;36852;45.466;11.066;2022-11-23T04:09:04;8.60;;;6.17;;
23346;SDS011;36852;45.466;11.066;2022-11-23T04:14:28;8.28;;;6.00;;
23346;SDS011;36852;45.466;11.066;2022-11-23T04:16:57;7.08;;;5.62;;
23346;SDS011;36852;45.466;11.066;2022-11-23T04:19:25;8.20;;;6.22;;
23346;SDS011;36852;45.466;11.066;2022-11-23T04:21:53;8.53;;;6.10;;
23346;SDS011;36852;45.466;11.066;2022-11-23T04:24:21;8.55;;;6.42;;
23346;SDS011;36852;45.466;11.066;2022-11-23T04:26:51;7.47;;;4.83;;
23346;SDS011;36852;45.466;11.066;2022-11-23T04:32:06;6.08;;;4.40;;
23346;SDS011;36852;45.466;11.066;2022-11-23T04:34:35;8.00;;;5.30;;
23346;SDS011;36852;45.466;11.066;2022-11-23T04:37:03;7.67;;;4.67;;
23346;SDS011;36852;45.466;11.066;2022-11-23T04:39:35;8.33;;;5.42;;
23346;SDS011;36852;45.466;11.066;2022-11-23T04:42:16;6.65;;;4.85;;
23346;SDS011;36852;45.466;11.066;2022-11-23T04:44:47;8.35;;;5.45;;
23346;SDS011;36852;45.466;11.066;2022-11-23T04:47:16;7.03;;;5.28;;
23346;SDS011;36852;45.466;11.066;2022-11-23T04:49:45;9.33;;;5.40;;
23346;SDS011;36852;45.466;11.066;2022-11-23T04:52:13;8.15;;;5.15;;
23346;SDS011;36852;45.466;11.066;2022-11-23T04:54:43;7.30;;;4.78;;
23346;SDS011;36852;45.466;11.066;2022-11-23T04:57:11;8.00;;;5.97;;
23346;SDS011;36852;45.466;11.066;2022-11-23T04:59:39;8.20;;;6.62;;
23346;SDS011;36852;45.466;11.066;2022-11-23T05:02:07;7.97;;;6.47;;
23346;SDS011;36852;45.466;11.066;2022-11-23T05:04:39;8.65;;;5.78;;
23346;SDS011;36852;45.466;11.066;2022-11-23T05:07:09;8.58;;;5.97;;
23346;SDS011;36852;45.466;11.066;2022-11-23T05:09:38;7.55;;;5.85;;
23346;SDS011;36852;45.466;11.066;2022-11-23T05:12:07;8.15;;;5.25;;
23346;SDS011;36852;45.466;11.066;2022-11-23T05:14:35;10.03;;;6.95;;
23346;SDS011;36852;45.466;11.066;2022-11-23T05:17:03;10.72;;;6.85;;
23346;SDS011;36852;45.466;11.066;2022-11-23T05:19:31;8.75;;;6.30;;
23346;SDS011;36852;45.466;11.066;2022-11-23T05:22:00;10.10;;;7.25;;
23346;SDS011;36852;45.466;11.066;2022-11-23T05:24:30;7.47;;;6.30;;
23346;SDS011;36852;45.466;11.066;2022-11-23T05:26:59;9.08;;;6.37;;
23346;SDS011;36852;45.466;11.066;2022-11-23T05:29:28;12.43;;;7.42;;
23346;SDS011;36852;45.466;11.066;2022-11-23T05:31:56;10.98;;;7.05;;
23346;SDS011;36852;45.466;11.066;2022-11-23T05:34:24;11.50;;;7.53;;
23346;SDS011;36852;45.466;11.066;2022-11-23T05:36:53;9.45;;;6.80;;
23346;SDS011;36852;45.466;11.066;2022-11-23T05:39:22;10.63;;;7.75;;
23346;SDS011;36852;45.466;11.066;2022-11-23T05:41:51;9.88;;;8.03;;
23346;SDS011;36852;45.466;11.066;2022-11-23T05:44:37;9.20;;;7.65;;
23346;SDS011;36852;45.466;11.066;2022-11-23T05:47:06;10.20;;;7.92;;
23346;SDS011;36852;45.466;11.066;2022-11-23T05:49:35;12.20;;;7.72;;
23346;SDS011;36852;45.466;11.066;2022-11-23T05:52:03;12.25;;;8.63;;
23346;SDS011;36852;45.466;11.066;2022-11-23T05:54:32;11.45;;;8.48;;
23346;SDS011;36852;45.466;11.066;2022-11-23T05:57:02;13.05;;;8.98;;
23346;SDS011;36852;45.466;11.066;2022-11-23T05:59:40;11.33;;;7.00;;
23346;SDS011;36852;45.466;11.066;2022-11-23T06:02:10;11.78;;;7.92;;
23346;SDS011;36852;45.466;11.066;2022-11-23T06:04:37;10.72;;;7.92;;
23346;SDS011;36852;45.466;11.066;2022-11-23T06:07:07;12.20;;;8.30;;
23346;SDS011;36852;45.466;11.066;2022-11-23T06:09:37;12.37;;;8.70;;
23346;SDS011;36852;45.466;11.066;2022-11-23T06:12:07;13.48;;;7.67;;
23346;SDS011;36852;45.466;11.066;2022-11-23T06:14:35;7.85;;;6.03;;
23346;SDS011;36852;45.466;11.066;2022-11-23T06:17:04;6.90;;;5.85;;
23346;SDS011;36852;45.466;11.066;2022-11-23T06:19:34;7.80;;;5.65;;
23346;SDS011;36852;45.466;11.066;2022-11-23T06:22:02;9.00;;;6.05;;
23346;SDS011;36852;45.466;11.066;2022-11-23T06:24:32;10.15;;;7.20;;
23346;SDS011;36852;45.466;11.066;2022-11-23T06:27:08;11.55;;;6.85;;
23346;SDS011;36852;45.466;11.066;2022-11-23T06:29:38;12.78;;;6.92;;
23346;SDS011;36852;45.466;11.066;2022-11-23T06:32:06;10.10;;;7.47;;
23346;SDS011;36852;45.466;11.066;2022-11-23T06:34:34;9.88;;;6.30;;
23346;SDS011;36852;45.466;11.066;2022-11-23T06:37:02;13.22;;;7.92;;
23346;SDS011;36852;45.466;11.066;2022-11-23T06:39:30;12.37;;;7.30;;
23346;SDS011;36852;45.466;11.066;2022-11-23T06:42:00;8.18;;;6.28;;
23346;SDS011;36852;45.466;11.066;2022-11-23T06:44:30;9.83;;;6.87;;
23346;SDS011;36852;45.466;11.066;2022-11-23T06:46:59;10.95;;;6.10;;
23346;SDS011;36852;45.466;11.066;2022-11-23T06:49:27;12.70;;;7.15;;
23346;SDS011;36852;45.466;11.066;2022-11-23T06:54:40;11.35;;;7.12;;
23346;SDS011;36852;45.466;11.066;2022-11-23T06:57:07;9.25;;;6.58;;
23346;SDS011;36852;45.466;11.066;2022-11-23T06:59:36;11.60;;;7.62;;
23346;SDS011;36852;45.466;11.066;2022-11-23T07:02:07;10.48;;;6.50;;
23346;SDS011;36852;45.466;11.066;2022-11-23T07:04:36;8.80;;;6.28;;
23346;SDS011;36852;45.466;11.066;2022-11-23T07:07:06;10.40;;;6.17;;
23346;SDS011;36852;45.466;11.066;2022-11-23T07:09:41;8.65;;;6.17;;
23346;SDS011;36852;45.466;11.066;2022-11-23T07:12:20;8.25;;;6.47;;
23346;SDS011;36852;45.466;11.066;2022-11-23T07:14:48;8.53;;;6.50;;
23346;SDS011;36852;45.466;11.066;2022-11-23T07:17:16;11.12;;;6.60;;
23346;SDS011;36852;45.466;11.066;2022-11-23T07:19:45;10.03;;;6.62;;
23346;SDS011;36852;45.466;11.066;2022-11-23T07:22:14;13.38;;;6.78;;
23346;SDS011;36852;45.466;11.066;2022-11-23T07:24:42;11.20;;;7.03;;
23346;SDS011;36852;45.466;11.066;2022-11-23T07:27:12;12.18;;;7.00;;
23346;SDS011;36852;45.466;11.066;2022-11-23T07:29:40;12.07;;;6.87;;
23346;SDS011;36852;45.466;11.066;2022-11-23T07:32:09;11.50;;;7.50;;
23346;SDS011;36852;45.466;11.066;2022-11-23T07:34:38;10.40;;;7.47;;
23346;SDS011;36852;45.466;11.066;2022-11-23T07:37:07;17.45;;;8.28;;
23346;SDS011;36852;45.466;11.066;2022-11-23T07:39:34;15.75;;;8.63;;
23346;SDS011;36852;45.466;11.066;2022-11-23T07:42:05;18.62;;;8.73;;
23346;SDS011;36852;45.466;11.066;2022-11-23T07:44:36;12.68;;;8.55;;
23346;SDS011;36852;45.466;11.066;2022-11-23T07:47:06;11.57;;;8.00;;
23346;SDS011;36852;45.466;11.066;2022-11-23T07:49:35;11.57;;;8.40;;
23346;SDS011;36852;45.466;11.066;2022-11-23T07:52:03;12.80;;;8.10;;
23346;SDS011;36852;45.466;11.066;2022-11-23T07:54:31;21.10;;;9.40;;
23346;SDS011;36852;45.466;11.066;2022-11-23T07:56:59;16.27;;;8.93;;
23346;SDS011;36852;45.466;11.066;2022-11-23T07:59:27;14.15;;;9.73;;
23346;SDS011;36852;45.466;11.066;2022-11-23T08:01:55;14.30;;;8.85;;
23346;SDS011;36852;45.466;11.066;2022-11-23T08:04:24;13.43;;;8.50;;
23346;SDS011;36852;45.466;11.066;2022-11-23T08:06:53;10.08;;;7.72;;
23346;SDS011;36852;45.466;11.066;2022-11-23T08:09:21;11.90;;;8.75;;
23346;SDS011;36852;45.466;11.066;2022-11-23T08:11:49;11.18;;;8.08;;
23346;SDS011;36852;45.466;11.066;2022-11-23T08:14:17;11.63;;;8.68;;
23346;SDS011;36852;45.466;11.066;2022-11-23T08:16:49;8.65;;;7.12;;
23346;SDS011;36852;45.466;11.066;2022-11-23T08:19:17;13.40;;;8.43;;
23346;SDS011;36852;45.466;11.066;2022-11-23T08:21:46;15.28;;;8.60;;
23346;SDS011;36852;45.466;11.066;2022-11-23T08:24:14;10.85;;;7.72;;
23346;SDS011;36852;45.466;11.066;2022-11-23T08:26:41;11.63;;;7.97;;
23346;SDS011;36852;45.466;11.066;2022-11-23T08:29:09;11.38;;;8.25;;
23346;SDS011;36852;45.466;11.066;2022-11-23T08:31:37;12.70;;;8.20;;
23346;SDS011;36852;45.466;11.066;2022-11-23T08:34:06;17.98;;;10.23;;
23346;SDS011;36852;45.466;11.066;2022-11-23T08:36:34;11.22;;;7.85;;
23346;SDS011;36852;45.466;11.066;2022-11-23T08:39:03;11.33;;;6.67;;
23346;SDS011;36852;45.466;11.066;2022-11-23T08:41:30;8.93;;;6.45;;
23346;SDS011;36852;45.466;11.066;2022-11-23T08:43:58;10.82;;;6.92;;
23346;SDS011;36852;45.466;11.066;2022-11-23T08:46:26;10.13;;;6.78;;
23346;SDS011;36852;45.466;11.066;2022-11-23T08:48:55;8.80;;;6.17;;
23346;SDS011;36852;45.466;11.066;2022-11-23T08:51:23;9.03;;;6.12;;
23346;SDS011;36852;45.466;11.066;2022-11-23T08:53:50;6.72;;;5.35;;
23346;SDS011;36852;45.466;11.066;2022-11-23T08:56:19;8.48;;;5.42;;
23346;SDS011;36852;45.466;11.066;2022-11-23T08:58:46;10.45;;;6.42;;
23346;SDS011;36852;45.466;11.066;2022-11-23T09:01:15;7.50;;;5.80;;
23346;SDS011;36852;45.466;11.066;2022-11-23T09:03:44;9.05;;;4.35;;
23346;SDS011;36852;45.466;11.066;2022-11-23T09:06:12;7.08;;;4.03;;
23346;SDS011;36852;45.466;11.066;2022-11-23T09:08:40;6.70;;;4.35;;
23346;SDS011;36852;45.466;11.066;2022-11-23T09:11:09;5.67;;;4.17;;
23346;SDS011;36852;45.466;11.066;2022-11-23T09:13:39;5.60;;;4.20;;
23346;SDS011;36852;45.466;11.066;2022-11-23T09:16:08;4.10;;;3.60;;
23346;SDS011;36852;45.466;11.066;2022-11-23T09:18:36;5.05;;;3.37;;
23346;SDS011;36852;45.466;11.066;2022-11-23T09:23:55;3.40;;;2.52;;
23346;SDS011;36852;45.466;11.066;2022-11-23T09:26:23;3.87;;;2.70;;
23346;SDS011;36852;45.466;11.066;2022-11-23T09:28:51;6.03;;;3.75;;
23346;SDS011;36852;45.466;11.066;2022-11-23T09:31:19;6.20;;;2.92;;
23346;SDS011;36852;45.466;11.066;2022-11-23T09:33:50;5.22;;;3.00;;
23346;SDS011;36852;45.466;11.066;2022-11-23T09:36:19;5.78;;;4.22;;
23346;SDS011;36852;45.466;11.066;2022-11-23T09:38:49;8.00;;;4.92;;
23346;SDS011;36852;45.466;11.066;2022-11-23T09:44:04;3.60;;;2.47;;
23346;SDS011;36852;45.466;11.066;2022-11-23T09:49:38;6.22;;;3.20;;
23346;SDS011;36852;45.466;11.066;2022-11-23T09:52:15;3.75;;;2.62;;
23346;SDS011;36852;45.466;11.066;2022-11-23T09:54:44;4.53;;;2.77;;
23346;SDS011;36852;45.466;11.066;2022-11-23T09:57:18;3.25;;;2.47;;
23346;SDS011;36852;45.466;11.066;2022-11-23T09:59:56;3.55;;;2.58;;
23346;SDS011;36852;45.466;11.066;2022-11-23T10:02:38;3.62;;;2.20;;
23346;SDS011;36852;45.466;11.066;2022-11-23T10:05:20;3.72;;;2.30;;
23346;SDS011;36852;45.466;11.066;2022-11-23T10:10:42;2.33;;;1.92;;
23346;SDS011;36852;45.466;11.066;2022-11-23T10:13:32;3.95;;;2.47;;
23346;SDS011;36852;45.466;11.066;2022-11-23T10:16:12;5.25;;;3.08;;
23346;SDS011;36852;45.466;11.066;2022-11-23T10:21:54;4.20;;;2.90;;
23346;SDS011;36852;45.466;11.066;2022-11-23T10:24:29;3.83;;;3.22;;
23346;SDS011;36852;45.466;11.066;2022-11-23T10:27:00;5.25;;;2.67;;
23346;SDS011;36852;45.466;11.066;2022-11-23T10:29:34;4.20;;;3.08;;
23346;SDS011;36852;45.466;11.066;2022-11-23T10:32:04;3.90;;;2.75;;
23346;SDS011;36852;45.466;11.066;2022-11-23T10:37:19;5.10;;;2.80;;
23346;SDS011;36852;45.466;11.066;2022-11-23T10:39:48;4.17;;;2.75;;
23346;SDS011;36852;45.466;11.066;2022-11-23T10:42:20;5.30;;;3.15;;
23346;SDS011;36852;45.466;11.066;2022-11-23T10:44:51;4.97;;;2.77;;
23346;SDS011;36852;45.466;11.066;2022-11-23T10:50:26;3.40;;;2.77;;
23346;SDS011;36852;45.466;11.066;2022-11-23T10:53:20;3.47;;;2.62;;
23346;SDS011;36852;45.466;11.066;2022-11-23T10:55:56;4.05;;;2.80;;
23346;SDS011;36852;45.466;11.066;2022-11-23T11:00:58;4.17;;;3.00;;
23346;SDS011;36852;45.466;11.066;2022-11-23T11:03:29;5.42;;;3.55;;
23346;SDS011;36852;45.466;11.066;2022-11-23T11:06:02;4.78;;;3.50;;
23346;SDS011;36852;45.466;11.066;2022-11-23T11:08:33;7.78;;;4.55;;
23346;SDS011;36852;45.466;11.066;2022-11-23T11:11:04;10.05;;;5.72;;
23346;SDS011;36852;45.466;11.066;2022-11-23T11:13:44;7.47;;;4.92;;
23346;SDS011;36852;45.466;11.066;2022-11-23T11:18:54;6.47;;;4.03;;
23346;SDS011;36852;45.466;11.066;2022-11-23T11:21:25;6.03;;;4.00;;
23346;SDS011;36852;45.466;11.066;2022-11-23T11:23:58;5.33;;;3.83;;
23346;SDS011;36852;45.466;11.066;2022-11-23T11:26:26;6.78;;;4.65;;
23346;SDS011;36852;45.466;11.066;2022-11-23T11:28:57;7.80;;;5.10;;
23346;SDS011;36852;45.466;11.066;2022-11-23T11:37:01;6.87;;;4.60;;
23346;SDS011;36852;45.466;11.066;2022-11-23T11:39:38;9.78;;;5.28;;
23346;SDS011;36852;45.466;11.066;2022-11-23T11:42:06;6.33;;;5.53;;
23346;SDS011;36852;45.466;11.066;2022-11-23T11:44:36;9.58;;;4.85;;
23346;SDS011;36852;45.466;11.066;2022-11-23T11:49:51;6.03;;;4.90;;
23346;SDS011;36852;45.466;11.066;2022-11-23T11:52:31;4.45;;;2.92;;
23346;SDS011;36852;45.466;11.066;2022-11-23T11:55:04;5.60;;;2.80;;
23346;SDS011;36852;45.466;11.066;2022-11-23T11:57:46;4.92;;;3.72;;
23346;SDS011;36852;45.466;11.066;2022-11-23T12:00:32;5.85;;;4.15;;
23346;SDS011;36852;45.466;11.066;2022-11-23T12:05:51;5.62;;;4.25;;
23346;SDS011;36852;45.466;11.066;2022-11-23T12:11:04;5.22;;;3.22;;
23346;SDS011;36852;45.466;11.066;2022-11-23T12:13:39;5.95;;;3.10;;
23346;SDS011;36852;45.466;11.066;2022-11-23T12:19:29;6.95;;;4.20;;
23346;SDS011;36852;45.466;11.066;2022-11-23T12:44:57;6.08;;;5.47;;
23346;SDS011;36852;45.466;11.066;2022-11-23T12:47:46;7.67;;;5.60;;
23346;SDS011;36852;45.466;11.066;2022-11-23T12:55:53;9.33;;;6.10;;
23346;SDS011;36852;45.466;11.066;2022-11-23T12:58:30;7.05;;;5.67;;
23346;SDS011;36852;45.466;11.066;2022-11-23T13:01:18;8.20;;;5.30;;
23346;SDS011;36852;45.466;11.066;2022-11-23T13:07:05;12.30;;;5.50;;
23346;SDS011;36852;45.466;11.066;2022-11-23T13:23:27;8.50;;;5.60;;
23346;SDS011;36852;45.466;11.066;2022-11-23T13:26:20;8.08;;;5.75;;
23346;SDS011;36852;45.466;11.066;2022-11-23T13:28:51;7.62;;;5.65;;
23346;SDS011;36852;45.466;11.066;2022-11-23T13:31:23;6.90;;;5.20;;
23346;SDS011;36852;45.466;11.066;2022-11-23T13:33:55;7.20;;;5.53;;
23346;SDS011;36852;45.466;11.066;2022-11-23T13:39:02;9.13;;;7.42;;
23346;SDS011;36852;45.466;11.066;2022-11-23T13:44:17;6.42;;;5.83;;
23346;SDS011;36852;45.466;11.066;2022-11-23T13:46:44;7.15;;;6.05;;
23346;SDS011;36852;45.466;11.066;2022-11-23T13:52:46;6.87;;;6.17;;
23346;SDS011;36852;45.466;11.066;2022-11-23T13:57:29;7.67;;;6.72;;
23346;SDS011;36852;45.466;11.066;2022-11-23T14:12:02;8.13;;;7.33;;
23346;SDS011;36852;45.466;11.066;2022-11-23T14:32:31;16.10;;;14.53;;
23346;SDS011;36852;45.466;11.066;2022-11-23T14:34:35;16.20;;;14.58;;
23346;SDS011;36852;45.466;11.066;2022-11-23T14:37:09;17.02;;;13.88;;
23346;SDS011;36852;45.466;11.066;2022-11-23T14:40:02;17.15;;;15.00;;
23346;SDS011;36852;45.466;11.066;2022-11-23T14:42:41;16.55;;;14.78;;
23346;SDS011;36852;45.466;11.066;2022-11-23T14:45:13;16.73;;;15.00;;
23346;SDS011;36852;45.466;11.066;2022-11-23T14:47:41;17.25;;;13.93;;
23346;SDS011;36852;45.466;11.066;2022-11-23T14:50:20;17.05;;;15.03;;
23346;SDS011;36852;45.466;11.066;2022-11-23T14:52:49;17.37;;;15.68;;
23346;SDS011;36852;45.466;11.066;2022-11-23T14:55:22;18.32;;;16.42;;
23346;SDS011;36852;45.466;11.066;2022-11-23T14:57:53;19.45;;;17.23;;
23346;SDS011;36852;45.466;11.066;2022-11-23T15:05:30;22.42;;;17.05;;
23346;SDS011;36852;45.466;11.066;2022-11-23T15:08:02;21.02;;;17.67;;
23346;SDS011;36852;45.466;11.066;2022-11-23T15:10:47;19.97;;;17.87;;
23346;SDS011;36852;45.466;11.066;2022-11-23T15:13:24;19.02;;;17.05;;
23346;SDS011;36852;45.466;11.066;2022-11-23T15:15:54;21.20;;;18.02;;
23346;SDS011;36852;45.466;11.066;2022-11-23T15:18:30;18.87;;;16.23;;
23346;SDS011;36852;45.466;11.066;2022-11-23T15:21:03;20.45;;;17.87;;
23346;SDS011;36852;45.466;11.066;2022-11-23T15:23:46;39.90;;;31.62;;
23346;SDS011;36852;45.466;11.066;2022-11-23T15:26:20;20.40;;;17.25;;
23346;SDS011;36852;45.466;11.066;2022-11-23T15:28:52;23.98;;;19.05;;
23346;SDS011;36852;45.466;11.066;2022-11-23T15:31:31;22.77;;;20.37;;
23346;SDS011;36852;45.466;11.066;2022-11-23T15:34:04;21.48;;;19.15;;
23346;SDS011;36852;45.466;11.066;2022-11-23T15:36:35;21.45;;;19.15;;
23346;SDS011;36852;45.466;11.066;2022-11-23T15:39:04;23.60;;;18.98;;
23346;SDS011;36852;45.466;11.066;2022-11-23T15:41:35;18.55;;;16.25;;
23346;SDS011;36852;45.466;11.066;2022-11-23T15:44:15;26.75;;;14.25;;
23346;SDS011;36852;45.466;11.066;2022-11-23T15:46:52;15.13;;;12.10;;
23346;SDS011;36852;45.466;11.066;2022-11-23T15:49:23;18.12;;;12.03;;
23346;SDS011;36852;45.466;11.066;2022-11-23T15:51:52;14.70;;;11.08;;
23346;SDS011;36852;45.466;11.066;2022-11-23T15:54:30;14.13;;;10.60;;
23346;SDS011;36852;45.466;11.066;2022-11-23T15:57:02;16.57;;;10.85;;
23346;SDS011;36852;45.466;11.066;2022-11-23T16:02:19;18.35;;;11.97;;
23346;SDS011;36852;45.466;11.066;2022-11-23T16:04:44;15.70;;;11.00;;
23346;SDS011;36852;45.466;11.066;2022-11-23T16:10:02;18.10;;;11.50;;
23346;SDS011;36852;45.466;11.066;2022-11-23T16:12:44;17.20;;;12.15;;
23346;SDS011;36852;45.466;11.066;2022-11-23T16:15:40;20.02;;;13.55;;
23346;SDS011;36852;45.466;11.066;2022-11-23T16:21:02;18.60;;;13.20;;
23346;SDS011;36852;45.466;11.066;2022-11-23T16:23:43;22.02;;;14.38;;
23346;SDS011;36852;45.466;11.066;2022-11-23T16:26:15;18.37;;;14.00;;
23346;SDS011;36852;45.466;11.066;2022-11-23T16:28:54;19.42;;;13.95;;
23346;SDS011;36852;45.466;11.066;2022-11-23T16:31:37;18.57;;;14.15;;
23346;SDS011;36852;45.466;11.066;2022-11-23T16:34:15;21.52;;;15.50;;
23346;SDS011;36852;45.466;11.066;2022-11-23T16:36:42;24.45;;;15.28;;
23346;SDS011;36852;45.466;11.066;2022-11-23T16:39:10;23.60;;;14.05;;
23346;SDS011;36852;45.466;11.066;2022-11-23T16:41:39;23.20;;;15.28;;
23346;SDS011;36852;45.466;11.066;2022-11-23T16:44:08;22.58;;;15.65;;
23346;SDS011;36852;45.466;11.066;2022-11-23T16:46:36;20.85;;;15.80;;
23346;SDS011;36852;45.466;11.066;2022-11-23T16:49:16;24.75;;;16.90;;
23346;SDS011;36852;45.466;11.066;2022-11-23T16:51:46;23.12;;;16.37;;
23346;SDS011;36852;45.466;11.066;2022-11-23T16:54:19;26.05;;;17.23;;
23346;SDS011;36852;45.466;11.066;2022-11-23T16:56:51;20.95;;;16.73;;
23346;SDS011;36852;45.466;11.066;2022-11-23T16:59:19;21.95;;;16.93;;
23346;SDS011;36852;45.466;11.066;2022-11-23T17:01:49;22.98;;;16.82;;
23346;SDS011;36852;45.466;11.066;2022-11-23T17:04:19;22.85;;;16.85;;
23346;SDS011;36852;45.466;11.066;2022-11-23T17:06:46;23.02;;;16.52;;
23346;SDS011;36852;45.466;11.066;2022-11-23T17:09:14;23.25;;;15.63;;
23346;SDS011;36852;45.466;11.066;2022-11-23T17:11:42;20.65;;;15.40;;
23346;SDS011;36852;45.466;11.066;2022-11-23T17:14:14;19.52;;;15.80;;
23346;SDS011;36852;45.466;11.066;2022-11-23T17:16:45;24.00;;;16.02;;
23346;SDS011;36852;45.466;11.066;2022-11-23T17:19:14;23.00;;;14.98;;
23346;SDS011;36852;45.466;11.066;2022-11-23T17:21:44;21.00;;;14.25;;
23346;SDS011;36852;45.466;11.066;2022-11-23T17:24:13;23.52;;;13.88;;
23346;SDS011;36852;45.466;11.066;2022-11-23T17:26:44;18.27;;;13.85;;
23346;SDS011;36852;45.466;11.066;2022-11-23T17:29:14;17.20;;;13.75;;
23346;SDS011;36852;45.466;11.066;2022-11-23T17:31:45;18.30;;;12.68;;
23346;SDS011;36852;45.466;11.066;2022-11-23T17:34:15;17.48;;;12.03;;
23346;SDS011;36852;45.466;11.066;2022-11-23T17:36:44;18.12;;;11.70;;
23346;SDS011;36852;45.466;11.066;2022-11-23T17:39:16;15.55;;;11.38;;